sensor_id;sensor_type;location;lat;lon;timestamp;temperature;humidity
67529;DHT22;54366;51.980;5.856;2023-04-01T00:00:22;11.10;88.60
67529;DHT22;54366;51.980;5.856;2023-04-01T00:02:48;11.20;88.80
67529;DHT22;54366;51.980;5.856;2023-04-01T00:05:21;11.20;88.80
67529;DHT22;54366;51.980;5.856;2023-04-01T00:07:54;11.20;88.90
67529;DHT22;54366;51.980;5.856;2023-04-01T00:10:27;11.10;88.90
67529;DHT22;54366;51.980;5.856;2023-04-01T00:13:00;11.20;89.00
67529;DHT22;54366;51.980;5.856;2023-04-01T00:15:26;11.20;88.90
67529;DHT22;54366;51.980;5.856;2023-04-01T00:17:59;11.10;88.90
67529;DHT22;54366;51.980;5.856;2023-04-01T00:20:27;11.10;88.90
67529;DHT22;54366;51.980;5.856;2023-04-01T00:23:01;11.20;89.00
67529;DHT22;54366;51.980;5.856;2023-04-01T00:25:34;11.20;89.10
67529;DHT22;54366;51.980;5.856;2023-04-01T00:28:07;11.20;89.10
67529;DHT22;54366;51.980;5.856;2023-04-01T00:30:35;11.10;89.00
67529;DHT22;54366;51.980;5.856;2023-04-01T00:33:08;11.20;89.00
67529;DHT22;54366;51.980;5.856;2023-04-01T00:35:41;11.20;89.20
67529;DHT22;54366;51.980;5.856;2023-04-01T00:38:14;11.20;89.20
67529;DHT22;54366;51.980;5.856;2023-04-01T00:40:47;11.20;89.20
67529;DHT22;54366;51.980;5.856;2023-04-01T00:43:20;11.20;89.20
67529;DHT22;54366;51.980;5.856;2023-04-01T00:45:49;11.20;89.20
67529;DHT22;54366;51.980;5.856;2023-04-01T00:48:31;11.20;89.10
67529;DHT22;54366;51.980;5.856;2023-04-01T00:51:15;11.20;89.00
67529;DHT22;54366;51.980;5.856;2023-04-01T00:54:02;11.20;89.00
67529;DHT22;54366;51.980;5.856;2023-04-01T00:56:47;11.20;89.00
67529;DHT22;54366;51.980;5.856;2023-04-01T00:59:29;11.30;89.10
67529;DHT22;54366;51.980;5.856;2023-04-01T01:02:05;11.20;88.90
67529;DHT22;54366;51.980;5.856;2023-04-01T01:04:40;11.30;88.90
67529;DHT22;54366;51.980;5.856;2023-04-01T01:07:53;11.30;88.80
67529;DHT22;54366;51.980;5.856;2023-04-01T01:10:34;11.30;88.70
67529;DHT22;54366;51.980;5.856;2023-04-01T01:13:30;11.30;88.70
67529;DHT22;54366;51.980;5.856;2023-04-01T01:16:20;11.30;88.60
67529;DHT22;54366;51.980;5.856;2023-04-01T01:26:08;11.30;88.50
67529;DHT22;54366;51.980;5.856;2023-04-01T01:35:48;11.30;88.70
67529;DHT22;54366;51.980;5.856;2023-04-01T01:38:27;11.30;88.70
67529;DHT22;54366;51.980;5.856;2023-04-01T01:41:05;11.30;88.70
67529;DHT22;54366;51.980;5.856;2023-04-01T01:43:43;11.30;88.70
67529;DHT22;54366;51.980;5.856;2023-04-01T01:46:23;11.40;88.80
67529;DHT22;54366;51.980;5.856;2023-04-01T01:48:59;11.40;88.90
67529;DHT22;54366;51.980;5.856;2023-04-01T01:51:33;11.40;88.90
67529;DHT22;54366;51.980;5.856;2023-04-01T01:54:13;11.40;88.90
67529;DHT22;54366;51.980;5.856;2023-04-01T01:56:55;11.40;88.80
67529;DHT22;54366;51.980;5.856;2023-04-01T01:59:32;11.40;88.80
67529;DHT22;54366;51.980;5.856;2023-04-01T02:02:07;11.40;88.70
67529;DHT22;54366;51.980;5.856;2023-04-01T02:04:43;11.40;88.60
67529;DHT22;54366;51.980;5.856;2023-04-01T02:07:24;11.30;88.60
67529;DHT22;54366;51.980;5.856;2023-04-01T02:09:58;11.40;88.50
67529;DHT22;54366;51.980;5.856;2023-04-01T02:12:32;11.40;88.50
67529;DHT22;54366;51.980;5.856;2023-04-01T02:15:10;11.30;88.30
67529;DHT22;54366;51.980;5.856;2023-04-01T02:17:45;11.30;88.30
67529;DHT22;54366;51.980;5.856;2023-04-01T02:20:24;11.30;88.30
67529;DHT22;54366;51.980;5.856;2023-04-01T02:22:58;11.30;88.30
67529;DHT22;54366;51.980;5.856;2023-04-01T02:25:35;11.30;88.30
67529;DHT22;54366;51.980;5.856;2023-04-01T02:28:10;11.30;88.30
67529;DHT22;54366;51.980;5.856;2023-04-01T02:30:39;11.30;88.20
67529;DHT22;54366;51.980;5.856;2023-04-01T02:33:13;11.40;88.20
67529;DHT22;54366;51.980;5.856;2023-04-01T02:35:46;11.40;88.20
67529;DHT22;54366;51.980;5.856;2023-04-01T02:38:12;11.30;88.20
67529;DHT22;54366;51.980;5.856;2023-04-01T02:40:51;11.30;88.10
67529;DHT22;54366;51.980;5.856;2023-04-01T02:43:25;11.30;88.10
67529;DHT22;54366;51.980;5.856;2023-04-01T02:45:58;11.30;88.10
67529;DHT22;54366;51.980;5.856;2023-04-01T02:48:31;11.30;88.10
67529;DHT22;54366;51.980;5.856;2023-04-01T02:50:57;11.30;88.00
67529;DHT22;54366;51.980;5.856;2023-04-01T02:53:36;11.30;88.10
67529;DHT22;54366;51.980;5.856;2023-04-01T02:56:09;11.20;88.00
67529;DHT22;54366;51.980;5.856;2023-04-01T02:58:36;11.20;88.00
67529;DHT22;54366;51.980;5.856;2023-04-01T03:01:09;11.20;88.10
67529;DHT22;54366;51.980;5.856;2023-04-01T03:03:35;11.20;88.10
67529;DHT22;54366;51.980;5.856;2023-04-01T03:06:10;11.20;88.10
67529;DHT22;54366;51.980;5.856;2023-04-01T03:08:43;11.20;88.10
67529;DHT22;54366;51.980;5.856;2023-04-01T03:11:10;11.20;88.10
67529;DHT22;54366;51.980;5.856;2023-04-01T03:13:44;11.20;88.10
67529;DHT22;54366;51.980;5.856;2023-04-01T03:16:17;11.20;88.10
67529;DHT22;54366;51.980;5.856;2023-04-01T03:18:50;11.20;88.10
67529;DHT22;54366;51.980;5.856;2023-04-01T03:21:25;11.20;88.10
67529;DHT22;54366;51.980;5.856;2023-04-01T03:23:58;11.20;88.10
67529;DHT22;54366;51.980;5.856;2023-04-01T03:26:31;11.20;88.10
67529;DHT22;54366;51.980;5.856;2023-04-01T03:29:04;11.20;88.10
67529;DHT22;54366;51.980;5.856;2023-04-01T03:31:38;11.20;88.00
67529;DHT22;54366;51.980;5.856;2023-04-01T03:34:11;11.20;88.00
67529;DHT22;54366;51.980;5.856;2023-04-01T03:36:44;11.20;88.00
67529;DHT22;54366;51.980;5.856;2023-04-01T03:39:17;11.20;88.00
67529;DHT22;54366;51.980;5.856;2023-04-01T03:41:54;11.20;88.10
67529;DHT22;54366;51.980;5.856;2023-04-01T03:44:32;11.20;88.00
67529;DHT22;54366;51.980;5.856;2023-04-01T03:47:05;11.10;88.00
67529;DHT22;54366;51.980;5.856;2023-04-01T03:49:33;11.10;88.00
67529;DHT22;54366;51.980;5.856;2023-04-01T03:52:09;11.10;88.10
67529;DHT22;54366;51.980;5.856;2023-04-01T03:54:43;11.10;88.10
67529;DHT22;54366;51.980;5.856;2023-04-01T03:57:17;11.10;88.10
67529;DHT22;54366;51.980;5.856;2023-04-01T03:59:51;11.10;88.10
67529;DHT22;54366;51.980;5.856;2023-04-01T04:02:24;11.00;88.00
67529;DHT22;54366;51.980;5.856;2023-04-01T04:04:51;11.10;88.10
67529;DHT22;54366;51.980;5.856;2023-04-01T04:07:27;11.00;88.00
67529;DHT22;54366;51.980;5.856;2023-04-01T04:10:04;11.10;88.10
67529;DHT22;54366;51.980;5.856;2023-04-01T04:12:37;11.10;88.10
67529;DHT22;54366;51.980;5.856;2023-04-01T04:15:11;11.10;88.10
67529;DHT22;54366;51.980;5.856;2023-04-01T04:17:45;11.10;88.20
67529;DHT22;54366;51.980;5.856;2023-04-01T04:20:11;11.00;88.10
67529;DHT22;54366;51.980;5.856;2023-04-01T04:22:44;11.00;88.20
67529;DHT22;54366;51.980;5.856;2023-04-01T04:25:17;11.00;88.20
67529;DHT22;54366;51.980;5.856;2023-04-01T04:27:44;11.00;88.30
67529;DHT22;54366;51.980;5.856;2023-04-01T04:30:17;11.00;88.30
67529;DHT22;54366;51.980;5.856;2023-04-01T04:32:50;11.00;88.30
67529;DHT22;54366;51.980;5.856;2023-04-01T04:35:16;11.00;88.40
67529;DHT22;54366;51.980;5.856;2023-04-01T04:37:49;11.00;88.30
67529;DHT22;54366;51.980;5.856;2023-04-01T04:40:22;11.00;88.30
67529;DHT22;54366;51.980;5.856;2023-04-01T04:42:55;11.00;88.30
67529;DHT22;54366;51.980;5.856;2023-04-01T04:45:28;11.00;88.20
67529;DHT22;54366;51.980;5.856;2023-04-01T04:48:02;11.00;88.20
67529;DHT22;54366;51.980;5.856;2023-04-01T04:50:35;11.00;88.20
67529;DHT22;54366;51.980;5.856;2023-04-01T04:53:02;11.00;88.20
67529;DHT22;54366;51.980;5.856;2023-04-01T04:55:35;11.00;88.20
67529;DHT22;54366;51.980;5.856;2023-04-01T04:58:38;11.00;88.20
67529;DHT22;54366;51.980;5.856;2023-04-01T05:01:16;11.00;88.20
67529;DHT22;54366;51.980;5.856;2023-04-01T05:03:49;11.00;88.20
67529;DHT22;54366;51.980;5.856;2023-04-01T05:06:16;11.00;88.20
67529;DHT22;54366;51.980;5.856;2023-04-01T05:08:50;11.00;88.20
67529;DHT22;54366;51.980;5.856;2023-04-01T05:11:23;11.00;88.30
67529;DHT22;54366;51.980;5.856;2023-04-01T05:13:51;11.00;88.20
67529;DHT22;54366;51.980;5.856;2023-04-01T05:16:24;11.10;88.30
67529;DHT22;54366;51.980;5.856;2023-04-01T05:18:58;11.10;88.20
67529;DHT22;54366;51.980;5.856;2023-04-01T05:21:24;11.10;88.30
67529;DHT22;54366;51.980;5.856;2023-04-01T05:23:58;11.10;88.30
67529;DHT22;54366;51.980;5.856;2023-04-01T05:26:31;11.10;88.30
67529;DHT22;54366;51.980;5.856;2023-04-01T05:29:05;11.10;88.30
67529;DHT22;54366;51.980;5.856;2023-04-01T05:31:39;11.10;88.30
67529;DHT22;54366;51.980;5.856;2023-04-01T05:34:13;11.20;88.20
67529;DHT22;54366;51.980;5.856;2023-04-01T05:36:46;11.20;88.20
67529;DHT22;54366;51.980;5.856;2023-04-01T05:39:19;11.20;88.10
67529;DHT22;54366;51.980;5.856;2023-04-01T05:41:45;11.20;88.10
67529;DHT22;54366;51.980;5.856;2023-04-01T05:44:18;11.20;88.10
67529;DHT22;54366;51.980;5.856;2023-04-01T05:47:11;11.20;88.00
67529;DHT22;54366;51.980;5.856;2023-04-01T05:49:44;11.20;88.10
67529;DHT22;54366;51.980;5.856;2023-04-01T05:52:17;11.10;88.10
67529;DHT22;54366;51.980;5.856;2023-04-01T05:55:04;11.20;88.20
67529;DHT22;54366;51.980;5.856;2023-04-01T05:57:38;11.20;88.20
67529;DHT22;54366;51.980;5.856;2023-04-01T06:00:12;11.10;88.20
67529;DHT22;54366;51.980;5.856;2023-04-01T06:02:38;11.10;88.20
67529;DHT22;54366;51.980;5.856;2023-04-01T06:05:20;11.10;88.30
67529;DHT22;54366;51.980;5.856;2023-04-01T06:08:08;11.10;88.30
67529;DHT22;54366;51.980;5.856;2023-04-01T06:15:00;11.10;88.30
67529;DHT22;54366;51.980;5.856;2023-04-01T06:18:24;11.10;88.40
67529;DHT22;54366;51.980;5.856;2023-04-01T06:21:06;11.10;88.50
67529;DHT22;54366;51.980;5.856;2023-04-01T06:24:37;11.10;88.50
67529;DHT22;54366;51.980;5.856;2023-04-01T06:27:42;11.10;88.50
67529;DHT22;54366;51.980;5.856;2023-04-01T06:37:33;11.10;88.70
67529;DHT22;54366;51.980;5.856;2023-04-01T06:43:43;11.10;88.70
67529;DHT22;54366;51.980;5.856;2023-04-01T06:46:59;11.20;88.80
67529;DHT22;54366;51.980;5.856;2023-04-01T06:50:14;11.20;88.70
67529;DHT22;54366;51.980;5.856;2023-04-01T06:53:37;11.20;88.70
67529;DHT22;54366;51.980;5.856;2023-04-01T06:56:47;11.20;88.80
67529;DHT22;54366;51.980;5.856;2023-04-01T06:59:29;11.20;88.80
67529;DHT22;54366;51.980;5.856;2023-04-01T07:02:25;11.20;88.80
67529;DHT22;54366;51.980;5.856;2023-04-01T07:05:02;11.30;88.80
67529;DHT22;54366;51.980;5.856;2023-04-01T07:07:36;11.30;88.70
67529;DHT22;54366;51.980;5.856;2023-04-01T07:10:35;11.40;88.80
67529;DHT22;54366;51.980;5.856;2023-04-01T07:13:45;11.40;88.70
67529;DHT22;54366;51.980;5.856;2023-04-01T07:16:59;11.40;88.60
67529;DHT22;54366;51.980;5.856;2023-04-01T07:19:42;11.40;88.50
67529;DHT22;54366;51.980;5.856;2023-04-01T07:22:40;11.50;88.60
67529;DHT22;54366;51.980;5.856;2023-04-01T07:25:39;11.50;88.60
67529;DHT22;54366;51.980;5.856;2023-04-01T07:28:40;11.50;88.60
67529;DHT22;54366;51.980;5.856;2023-04-01T07:31:34;11.50;88.60
67529;DHT22;54366;51.980;5.856;2023-04-01T07:34:23;11.60;88.60
67529;DHT22;54366;51.980;5.856;2023-04-01T07:37:53;11.50;88.60
67529;DHT22;54366;51.980;5.856;2023-04-01T07:40:46;11.60;88.70
67529;DHT22;54366;51.980;5.856;2023-04-01T07:47:04;11.70;88.60
67529;DHT22;54366;51.980;5.856;2023-04-01T07:56:10;11.70;88.80
67529;DHT22;54366;51.980;5.856;2023-04-01T08:02:40;11.70;88.90
67529;DHT22;54366;51.980;5.856;2023-04-01T08:05:29;11.70;88.90
67529;DHT22;54366;51.980;5.856;2023-04-01T08:08:29;11.80;89.10
67529;DHT22;54366;51.980;5.856;2023-04-01T08:15:26;11.80;89.10
67529;DHT22;54366;51.980;5.856;2023-04-01T08:21:37;11.90;89.10
67529;DHT22;54366;51.980;5.856;2023-04-01T08:24:32;11.90;89.20
67529;DHT22;54366;51.980;5.856;2023-04-01T08:27:21;11.90;89.20
67529;DHT22;54366;51.980;5.856;2023-04-01T08:32:59;12.00;89.50
67529;DHT22;54366;51.980;5.856;2023-04-01T08:36:21;12.00;89.30
67529;DHT22;54366;51.980;5.856;2023-04-01T08:39:18;12.00;89.20
67529;DHT22;54366;51.980;5.856;2023-04-01T08:45:21;12.00;89.20
67529;DHT22;54366;51.980;5.856;2023-04-01T08:48:19;12.00;89.30
67529;DHT22;54366;51.980;5.856;2023-04-01T08:51:16;11.90;89.00
67529;DHT22;54366;51.980;5.856;2023-04-01T08:57:50;12.00;89.30
67529;DHT22;54366;51.980;5.856;2023-04-01T09:00:56;12.00;89.20
67529;DHT22;54366;51.980;5.856;2023-04-01T09:06:58;12.10;89.50
67529;DHT22;54366;51.980;5.856;2023-04-01T09:10:01;12.10;89.40
67529;DHT22;54366;51.980;5.856;2023-04-01T09:13:20;12.20;89.30
67529;DHT22;54366;51.980;5.856;2023-04-01T09:26:08;12.20;89.30
67529;DHT22;54366;51.980;5.856;2023-04-01T09:32:46;12.20;89.20
67529;DHT22;54366;51.980;5.856;2023-04-01T09:35:47;12.20;89.20
67529;DHT22;54366;51.980;5.856;2023-04-01T09:38:47;12.20;89.00
67529;DHT22;54366;51.980;5.856;2023-04-01T09:45:24;12.20;89.00
67529;DHT22;54366;51.980;5.856;2023-04-01T09:49:10;12.20;88.80
67529;DHT22;54366;51.980;5.856;2023-04-01T09:56:21;12.20;88.40
67529;DHT22;54366;51.980;5.856;2023-04-01T10:01:53;12.10;88.70
67529;DHT22;54366;51.980;5.856;2023-04-01T10:08:36;12.10;88.70
67529;DHT22;54366;51.980;5.856;2023-04-01T10:18:49;12.10;88.90
67529;DHT22;54366;51.980;5.856;2023-04-01T10:34:56;12.30;88.90
67529;DHT22;54366;51.980;5.856;2023-04-01T10:38:19;12.30;88.90
67529;DHT22;54366;51.980;5.856;2023-04-01T10:51:16;12.50;89.00
67529;DHT22;54366;51.980;5.856;2023-04-01T11:08:57;12.80;88.20
67529;DHT22;54366;51.980;5.856;2023-04-01T11:22:08;12.90;88.40
67529;DHT22;54366;51.980;5.856;2023-04-01T11:25:36;13.00;88.10
67529;DHT22;54366;51.980;5.856;2023-04-01T11:31:40;13.00;87.40
67529;DHT22;54366;51.980;5.856;2023-04-01T11:34:50;12.90;85.80
67529;DHT22;54366;51.980;5.856;2023-04-01T11:41:30;12.60;86.40
67529;DHT22;54366;51.980;5.856;2023-04-01T11:44:26;12.60;86.90
67529;DHT22;54366;51.980;5.856;2023-04-01T11:47:44;12.60;87.60
67529;DHT22;54366;51.980;5.856;2023-04-01T11:51:01;12.70;88.00
67529;DHT22;54366;51.980;5.856;2023-04-01T12:07:19;12.60;88.10
67529;DHT22;54366;51.980;5.856;2023-04-01T12:10:12;12.60;88.40
67529;DHT22;54366;51.980;5.856;2023-04-01T12:21:02;12.50;88.80
67529;DHT22;54366;51.980;5.856;2023-04-01T12:22:59;12.50;88.40
67529;DHT22;54366;51.980;5.856;2023-04-01T12:42:24;12.20;89.10
67529;DHT22;54366;51.980;5.856;2023-04-01T12:48:31;12.30;89.70
67529;DHT22;54366;51.980;5.856;2023-04-01T12:55:06;12.30;89.00
67529;DHT22;54366;51.980;5.856;2023-04-01T13:09:31;12.40;88.80
67529;DHT22;54366;51.980;5.856;2023-04-01T13:13:15;12.40;88.90
67529;DHT22;54366;51.980;5.856;2023-04-01T13:15:28;12.40;89.10
67529;DHT22;54366;51.980;5.856;2023-04-01T13:18:18;12.40;89.10
67529;DHT22;54366;51.980;5.856;2023-04-01T13:21:19;12.40;89.00
67529;DHT22;54366;51.980;5.856;2023-04-01T13:24:36;12.50;89.20
67529;DHT22;54366;51.980;5.856;2023-04-01T13:27:35;12.50;89.40
67529;DHT22;54366;51.980;5.856;2023-04-01T13:30:33;12.60;89.40
67529;DHT22;54366;51.980;5.856;2023-04-01T13:33:31;12.60;89.20
67529;DHT22;54366;51.980;5.856;2023-04-01T13:40:21;12.70;89.20
67529;DHT22;54366;51.980;5.856;2023-04-01T13:43:18;12.80;88.90
67529;DHT22;54366;51.980;5.856;2023-04-01T13:49:26;12.80;89.00
67529;DHT22;54366;51.980;5.856;2023-04-01T13:55:39;12.90;89.10
67529;DHT22;54366;51.980;5.856;2023-04-01T14:01:50;12.90;88.70
67529;DHT22;54366;51.980;5.856;2023-04-01T14:04:53;12.90;88.70
67529;DHT22;54366;51.980;5.856;2023-04-01T14:11:16;12.90;88.30
67529;DHT22;54366;51.980;5.856;2023-04-01T14:17:49;12.90;88.00
67529;DHT22;54366;51.980;5.856;2023-04-01T14:20:34;12.90;88.30
67529;DHT22;54366;51.980;5.856;2023-04-01T14:28:16;12.90;88.00
67529;DHT22;54366;51.980;5.856;2023-04-01T14:43:12;13.00;88.10
67529;DHT22;54366;51.980;5.856;2023-04-01T14:52:30;13.10;88.20
67529;DHT22;54366;51.980;5.856;2023-04-01T14:55:31;13.10;88.30
67529;DHT22;54366;51.980;5.856;2023-04-01T14:58:19;13.20;88.30
67529;DHT22;54366;51.980;5.856;2023-04-01T15:01:17;13.20;88.10
67529;DHT22;54366;51.980;5.856;2023-04-01T15:04:23;13.20;88.00
67529;DHT22;54366;51.980;5.856;2023-04-01T15:10:58;13.20;87.70
67529;DHT22;54366;51.980;5.856;2023-04-01T15:14:00;13.20;87.80
67529;DHT22;54366;51.980;5.856;2023-04-01T15:17:26;13.20;88.00
67529;DHT22;54366;51.980;5.856;2023-04-01T15:20:42;13.20;88.00
67529;DHT22;54366;51.980;5.856;2023-04-01T15:23:46;13.20;87.90
67529;DHT22;54366;51.980;5.856;2023-04-01T15:26:34;13.10;87.70
67529;DHT22;54366;51.980;5.856;2023-04-01T15:29:40;13.20;88.10
67529;DHT22;54366;51.980;5.856;2023-04-01T15:33:02;13.20;87.20
67529;DHT22;54366;51.980;5.856;2023-04-01T15:39:14;13.10;86.30
67529;DHT22;54366;51.980;5.856;2023-04-01T15:42:24;12.90;86.10
67529;DHT22;54366;51.980;5.856;2023-04-01T15:48:46;12.70;87.00
67529;DHT22;54366;51.980;5.856;2023-04-01T15:59:39;12.60;87.20
67529;DHT22;54366;51.980;5.856;2023-04-01T16:01:51;12.50;87.30
67529;DHT22;54366;51.980;5.856;2023-04-01T16:05:04;12.50;87.40
67529;DHT22;54366;51.980;5.856;2023-04-01T16:08:36;12.50;87.80
67529;DHT22;54366;51.980;5.856;2023-04-01T16:11:25;12.50;87.60
67529;DHT22;54366;51.980;5.856;2023-04-01T16:20:25;12.40;87.70
67529;DHT22;54366;51.980;5.856;2023-04-01T16:27:18;12.40;87.50
67529;DHT22;54366;51.980;5.856;2023-04-01T16:36:32;12.40;87.70
67529;DHT22;54366;51.980;5.856;2023-04-01T16:40:13;12.40;87.70
67529;DHT22;54366;51.980;5.856;2023-04-01T16:45:44;12.40;87.10
67529;DHT22;54366;51.980;5.856;2023-04-01T16:48:27;12.30;87.20
67529;DHT22;54366;51.980;5.856;2023-04-01T16:51:07;12.20;87.20
67529;DHT22;54366;51.980;5.856;2023-04-01T16:56:48;12.20;86.90
67529;DHT22;54366;51.980;5.856;2023-04-01T16:59:27;12.20;87.00
67529;DHT22;54366;51.980;5.856;2023-04-01T17:02:31;12.10;87.20
67529;DHT22;54366;51.980;5.856;2023-04-01T17:05:11;12.10;86.90
67529;DHT22;54366;51.980;5.856;2023-04-01T17:08:13;12.10;87.00
67529;DHT22;54366;51.980;5.856;2023-04-01T17:14:28;11.90;86.70
67529;DHT22;54366;51.980;5.856;2023-04-01T17:20:32;11.80;86.90
67529;DHT22;54366;51.980;5.856;2023-04-01T17:23:38;11.70;86.80
67529;DHT22;54366;51.980;5.856;2023-04-01T17:26:26;11.60;87.20
67529;DHT22;54366;51.980;5.856;2023-04-01T17:29:23;11.70;87.70
67529;DHT22;54366;51.980;5.856;2023-04-01T17:32:47;11.70;87.70
67529;DHT22;54366;51.980;5.856;2023-04-01T17:35:36;11.60;87.20
67529;DHT22;54366;51.980;5.856;2023-04-01T17:38:40;11.60;87.10
67529;DHT22;54366;51.980;5.856;2023-04-01T17:44:38;11.50;86.90
67529;DHT22;54366;51.980;5.856;2023-04-01T17:47:46;11.50;87.00
67529;DHT22;54366;51.980;5.856;2023-04-01T17:51:40;11.40;86.60
67529;DHT22;54366;51.980;5.856;2023-04-01T17:53:51;11.40;86.80
67529;DHT22;54366;51.980;5.856;2023-04-01T18:00:14;11.30;87.30
67529;DHT22;54366;51.980;5.856;2023-04-01T18:06:36;11.40;85.70
67529;DHT22;54366;51.980;5.856;2023-04-01T18:10:28;11.20;85.40
67529;DHT22;54366;51.980;5.856;2023-04-01T18:13:10;11.20;85.70
67529;DHT22;54366;51.980;5.856;2023-04-01T18:22:44;10.80;86.10
67529;DHT22;54366;51.980;5.856;2023-04-01T18:25:27;10.90;86.60
67529;DHT22;54366;51.980;5.856;2023-04-01T18:28:24;10.80;86.80
67529;DHT22;54366;51.980;5.856;2023-04-01T18:31:15;10.90;86.90
67529;DHT22;54366;51.980;5.856;2023-04-01T18:34:51;10.90;87.00
67529;DHT22;54366;51.980;5.856;2023-04-01T18:37:23;10.90;87.00
67529;DHT22;54366;51.980;5.856;2023-04-01T18:40:01;10.90;86.90
67529;DHT22;54366;51.980;5.856;2023-04-01T18:43:00;10.90;86.60
67529;DHT22;54366;51.980;5.856;2023-04-01T18:45:58;10.80;86.10
67529;DHT22;54366;51.980;5.856;2023-04-01T18:51:49;10.70;86.10
67529;DHT22;54366;51.980;5.856;2023-04-01T18:57:38;10.60;86.30
67529;DHT22;54366;51.980;5.856;2023-04-01T19:00:38;10.50;86.50
67529;DHT22;54366;51.980;5.856;2023-04-01T19:03:25;10.50;86.70
67529;DHT22;54366;51.980;5.856;2023-04-01T19:06:31;10.60;86.40
67529;DHT22;54366;51.980;5.856;2023-04-01T19:09:31;10.50;85.90
67529;DHT22;54366;51.980;5.856;2023-04-01T19:13:15;10.40;86.30
67529;DHT22;54366;51.980;5.856;2023-04-01T19:15:44;10.40;86.10
67529;DHT22;54366;51.980;5.856;2023-04-01T19:23:09;10.40;86.60
67529;DHT22;54366;51.980;5.856;2023-04-01T19:25:54;10.40;86.60
67529;DHT22;54366;51.980;5.856;2023-04-01T19:28:54;10.30;86.60
67529;DHT22;54366;51.980;5.856;2023-04-01T19:34:57;10.30;86.60
67529;DHT22;54366;51.980;5.856;2023-04-01T19:41:36;10.20;86.70
67529;DHT22;54366;51.980;5.856;2023-04-01T19:44:17;10.20;86.40
67529;DHT22;54366;51.980;5.856;2023-04-01T19:47:02;10.20;86.30
67529;DHT22;54366;51.980;5.856;2023-04-01T19:50:23;10.10;86.30
67529;DHT22;54366;51.980;5.856;2023-04-01T19:56:15;10.10;86.70
67529;DHT22;54366;51.980;5.856;2023-04-01T20:02:39;10.00;86.10
67529;DHT22;54366;51.980;5.856;2023-04-01T20:08:45;9.90;86.00
67529;DHT22;54366;51.980;5.856;2023-04-01T20:11:50;9.90;85.90
67529;DHT22;54366;51.980;5.856;2023-04-01T20:14:45;9.90;86.30
67529;DHT22;54366;51.980;5.856;2023-04-01T20:17:43;9.80;86.10
67529;DHT22;54366;51.980;5.856;2023-04-01T20:20:21;9.70;86.20
67529;DHT22;54366;51.980;5.856;2023-04-01T20:23:30;9.80;86.30
67529;DHT22;54366;51.980;5.856;2023-04-01T20:26:12;9.80;86.20
67529;DHT22;54366;51.980;5.856;2023-04-01T20:29:35;9.70;86.90
67529;DHT22;54366;51.980;5.856;2023-04-01T20:32:26;9.70;86.60
67529;DHT22;54366;51.980;5.856;2023-04-01T20:38:55;9.70;86.70
67529;DHT22;54366;51.980;5.856;2023-04-01T20:41:37;9.70;86.40
67529;DHT22;54366;51.980;5.856;2023-04-01T20:44:13;9.70;86.00
67529;DHT22;54366;51.980;5.856;2023-04-01T20:50:20;9.60;86.00
67529;DHT22;54366;51.980;5.856;2023-04-01T20:53:12;9.60;85.40
67529;DHT22;54366;51.980;5.856;2023-04-01T20:59:47;9.50;85.20
67529;DHT22;54366;51.980;5.856;2023-04-01T21:02:55;9.40;85.00
67529;DHT22;54366;51.980;5.856;2023-04-01T21:09:10;9.40;85.30
67529;DHT22;54366;51.980;5.856;2023-04-01T21:12:30;9.30;85.50
67529;DHT22;54366;51.980;5.856;2023-04-01T21:23:37;9.40;85.40
67529;DHT22;54366;51.980;5.856;2023-04-01T21:32:36;9.20;85.10
67529;DHT22;54366;51.980;5.856;2023-04-01T21:39:22;9.10;84.70
67529;DHT22;54366;51.980;5.856;2023-04-01T21:52:56;9.00;85.50
67529;DHT22;54366;51.980;5.856;2023-04-01T21:55:55;9.00;85.70
67529;DHT22;54366;51.980;5.856;2023-04-01T22:04:41;9.00;85.00
67529;DHT22;54366;51.980;5.856;2023-04-01T22:07:25;9.00;84.60
67529;DHT22;54366;51.980;5.856;2023-04-01T22:10:41;9.00;84.70
67529;DHT22;54366;51.980;5.856;2023-04-01T22:13:42;9.00;84.50
67529;DHT22;54366;51.980;5.856;2023-04-01T22:16:39;9.00;84.50
67529;DHT22;54366;51.980;5.856;2023-04-01T22:20:58;8.90;84.60
67529;DHT22;54366;51.980;5.856;2023-04-01T22:23:27;8.90;84.40
67529;DHT22;54366;51.980;5.856;2023-04-01T22:26:14;8.90;84.50
67529;DHT22;54366;51.980;5.856;2023-04-01T22:29:01;8.80;84.30
67529;DHT22;54366;51.980;5.856;2023-04-01T22:31:51;8.80;84.30
67529;DHT22;54366;51.980;5.856;2023-04-01T22:34:44;8.80;83.90
67529;DHT22;54366;51.980;5.856;2023-04-01T22:37:45;8.70;84.30
67529;DHT22;54366;51.980;5.856;2023-04-01T22:40:54;8.70;84.20
67529;DHT22;54366;51.980;5.856;2023-04-01T22:43:55;8.70;84.60
67529;DHT22;54366;51.980;5.856;2023-04-01T22:52:40;8.60;84.20
67529;DHT22;54366;51.980;5.856;2023-04-01T22:55:16;8.60;84.70
67529;DHT22;54366;51.980;5.856;2023-04-01T22:58:17;8.60;84.80
67529;DHT22;54366;51.980;5.856;2023-04-01T23:01:01;8.60;84.40
67529;DHT22;54366;51.980;5.856;2023-04-01T23:03:37;8.60;84.70
67529;DHT22;54366;51.980;5.856;2023-04-01T23:06:26;8.60;84.50
67529;DHT22;54366;51.980;5.856;2023-04-01T23:12:05;8.50;84.50
67529;DHT22;54366;51.980;5.856;2023-04-01T23:14:49;8.50;84.70
67529;DHT22;54366;51.980;5.856;2023-04-01T23:18:09;8.50;84.60
67529;DHT22;54366;51.980;5.856;2023-04-01T23:24:15;8.50;84.20
67529;DHT22;54366;51.980;5.856;2023-04-01T23:27:12;8.40;84.30
67529;DHT22;54366;51.980;5.856;2023-04-01T23:29:47;8.40;84.00
67529;DHT22;54366;51.980;5.856;2023-04-01T23:32:23;8.40;84.30
67529;DHT22;54366;51.980;5.856;2023-04-01T23:34:59;8.30;84.60
67529;DHT22;54366;51.980;5.856;2023-04-01T23:37:32;8.30;84.80
67529;DHT22;54366;51.980;5.856;2023-04-01T23:40:12;8.30;85.00
67529;DHT22;54366;51.980;5.856;2023-04-01T23:42:45;8.30;85.10
67529;DHT22;54366;51.980;5.856;2023-04-01T23:45:18;8.40;85.10
67529;DHT22;54366;51.980;5.856;2023-04-01T23:47:53;8.40;84.80
67529;DHT22;54366;51.980;5.856;2023-04-01T23:50:27;8.30;84.40
67529;DHT22;54366;51.980;5.856;2023-04-01T23:53:03;8.30;84.60
67529;DHT22;54366;51.980;5.856;2023-04-01T23:55:41;8.30;84.20
67529;DHT22;54366;51.980;5.856;2023-04-01T23:58:22;8.30;84.50
